KGEG/GEG METAR and TAF weather

Enter ICAO airport designator
Station Type Date Time Source
KGEG METAR 2019/12/09 21:53 UTC NOAA

KGEG 092153Z 13003KT 10SM BKN009 BKN200 M01/M03 A3021 RMK AO2 SLP254 T10061033


Station Type Date Time Source
KGEG Decoded METAR 2019/12/09 21:53 UTC NOAA

SPOKANE INTERNATIONAL AIRPORT , WA, United States (KGEG) 47-37N 117-32W 735M
Dec 09, 2019 - 04:53 PM EST / 2019.12.09 2153 UTC
Wind: from the SE (130 degrees) at 3 MPH (3 KT):0
Visibility: 10 mile(s):0
Sky conditions: mostly cloudy
Temperature: 30.9 F (-0.6 C)
Dew Point: 26.1 F (-3.3 C)
Relative Humidity: 81%
Pressure (altimeter): 30.21 in. Hg (1023 hPa)
ob: KGEG 092153Z 13003KT 10SM BKN009 BKN200 M01/M03 A3021 RMK AO2 SLP254 T10061033
cycle: 22

Station Type Date Time Source
KGEG TAF 2019/12/09 20:18 UTC NOAA

TAF
AMD KGEG 092015Z 0920/1018 VRB03KT 5SM BR BKN006
FM092300 VRB04KT P6SM SCT007 BKN015
FM100600 09004KT 1/2SM FG OVC003

Example: see airport list